sensor_id;sensor_type;location;lat;lon;timestamp;P1;durP1;ratioP1;P2;durP2;ratioP2
12114;SDS011;6121;49.810;6.418;2022-11-15T00:00:23;912.10;;;853.70;;
12114;SDS011;6121;49.810;6.418;2022-11-15T00:02:49;899.60;;;842.05;;
12114;SDS011;6121;49.810;6.418;2022-11-15T00:05:16;916.15;;;857.75;;
12114;SDS011;6121;49.810;6.418;2022-11-15T00:07:42;914.53;;;856.23;;
12114;SDS011;6121;49.810;6.418;2022-11-15T00:10:08;917.80;;;859.37;;
12114;SDS011;6121;49.810;6.418;2022-11-15T00:12:33;903.22;;;845.40;;
12114;SDS011;6121;49.810;6.418;2022-11-15T00:14:59;912.25;;;853.88;;
12114;SDS011;6121;49.810;6.418;2022-11-15T00:17:25;903.75;;;845.80;;
12114;SDS011;6121;49.810;6.418;2022-11-15T00:19:50;916.42;;;858.17;;
12114;SDS011;6121;49.810;6.418;2022-11-15T00:22:16;987.83;;;926.67;;
12114;SDS011;6121;49.810;6.418;2022-11-15T00:24:41;994.20;;;932.60;;
12114;SDS011;6121;49.810;6.418;2022-11-15T00:27:07;990.20;;;929.30;;
12114;SDS011;6121;49.810;6.418;2022-11-15T00:29:33;984.08;;;923.33;;
12114;SDS011;6121;49.810;6.418;2022-11-15T00:31:59;989.67;;;928.53;;
12114;SDS011;6121;49.810;6.418;2022-11-15T00:34:24;984.37;;;923.50;;
12114;SDS011;6121;49.810;6.418;2022-11-15T00:36:50;971.57;;;911.47;;
12114;SDS011;6121;49.810;6.418;2022-11-15T00:39:16;983.80;;;922.70;;
12114;SDS011;6121;49.810;6.418;2022-11-15T00:41:41;982.83;;;922.05;;
12114;SDS011;6121;49.810;6.418;2022-11-15T00:44:07;973.08;;;912.67;;
12114;SDS011;6121;49.810;6.418;2022-11-15T00:46:32;977.37;;;916.77;;
12114;SDS011;6121;49.810;6.418;2022-11-15T00:48:58;972.53;;;912.13;;
12114;SDS011;6121;49.810;6.418;2022-11-15T00:51:24;970.67;;;910.42;;
12114;SDS011;6121;49.810;6.418;2022-11-15T00:53:49;967.78;;;907.65;;
12114;SDS011;6121;49.810;6.418;2022-11-15T00:56:15;970.17;;;910.17;;
12114;SDS011;6121;49.810;6.418;2022-11-15T00:58:40;984.05;;;923.17;;
12114;SDS011;6121;49.810;6.418;2022-11-15T01:01:10;980.63;;;919.92;;
12114;SDS011;6121;49.810;6.418;2022-11-15T01:03:38;987.25;;;925.92;;
12114;SDS011;6121;49.810;6.418;2022-11-15T01:06:05;982.93;;;921.80;;
12114;SDS011;6121;49.810;6.418;2022-11-15T01:08:32;998.92;;;937.30;;
12114;SDS011;6121;49.810;6.418;2022-11-15T01:11:04;979.65;;;918.70;;
12114;SDS011;6121;49.810;6.418;2022-11-15T01:13:32;983.03;;;922.10;;
12114;SDS011;6121;49.810;6.418;2022-11-15T01:15:59;975.60;;;914.83;;
12114;SDS011;6121;49.810;6.418;2022-11-15T01:18:30;972.78;;;912.45;;
12114;SDS011;6121;49.810;6.418;2022-11-15T01:20:56;964.83;;;904.47;;
12114;SDS011;6121;49.810;6.418;2022-11-15T01:23:21;979.65;;;918.42;;
12114;SDS011;6121;49.810;6.418;2022-11-15T01:25:47;982.43;;;921.37;;
12114;SDS011;6121;49.810;6.418;2022-11-15T01:28:12;986.47;;;925.67;;
12114;SDS011;6121;49.810;6.418;2022-11-15T01:30:38;988.33;;;926.97;;
12114;SDS011;6121;49.810;6.418;2022-11-15T01:33:04;986.43;;;925.37;;
12114;SDS011;6121;49.810;6.418;2022-11-15T01:35:29;989.37;;;928.30;;
12114;SDS011;6121;49.810;6.418;2022-11-15T01:37:55;992.10;;;930.70;;
12114;SDS011;6121;49.810;6.418;2022-11-15T01:40:20;983.43;;;922.80;;
12114;SDS011;6121;49.810;6.418;2022-11-15T01:42:46;987.70;;;926.58;;
12114;SDS011;6121;49.810;6.418;2022-11-15T01:45:13;982.15;;;921.22;;
12114;SDS011;6121;49.810;6.418;2022-11-15T01:47:40;963.28;;;903.25;;
12114;SDS011;6121;49.810;6.418;2022-11-15T01:50:14;916.83;;;858.78;;
12114;SDS011;6121;49.810;6.418;2022-11-15T01:52:44;921.17;;;862.88;;
12114;SDS011;6121;49.810;6.418;2022-11-15T01:55:11;987.17;;;926.20;;
12114;SDS011;6121;49.810;6.418;2022-11-15T01:57:41;927.53;;;868.95;;
12114;SDS011;6121;49.810;6.418;2022-11-15T02:00:09;971.35;;;911.13;;
12114;SDS011;6121;49.810;6.418;2022-11-15T02:02:35;931.03;;;872.35;;
12114;SDS011;6121;49.810;6.418;2022-11-15T02:05:02;956.53;;;896.83;;
12114;SDS011;6121;49.810;6.418;2022-11-15T02:07:28;947.50;;;888.17;;
12114;SDS011;6121;49.810;6.418;2022-11-15T02:09:54;921.00;;;862.72;;
12114;SDS011;6121;49.810;6.418;2022-11-15T02:12:21;917.13;;;858.72;;
12114;SDS011;6121;49.810;6.418;2022-11-15T02:14:49;989.22;;;928.13;;
12114;SDS011;6121;49.810;6.418;2022-11-15T02:31:24;972.17;;;911.88;;
12114;SDS011;6121;49.810;6.418;2022-11-15T02:39:02;1000.45;;;938.80;;
12114;SDS011;6121;49.810;6.418;2022-11-15T02:41:47;991.70;;;930.78;;
12114;SDS011;6121;49.810;6.418;2022-11-15T02:46:58;1002.80;;;941.20;;
12114;SDS011;6121;49.810;6.418;2022-11-15T02:49:44;1018.47;;;956.13;;
12114;SDS011;6121;49.810;6.418;2022-11-15T02:52:16;1008.83;;;947.08;;
12114;SDS011;6121;49.810;6.418;2022-11-15T02:54:42;997.97;;;936.40;;
12114;SDS011;6121;49.810;6.418;2022-11-15T02:57:18;995.00;;;933.50;;
12114;SDS011;6121;49.810;6.418;2022-11-15T03:00:10;925.50;;;866.88;;
12114;SDS011;6121;49.810;6.418;2022-11-15T03:16:31;916.55;;;858.33;;
12114;SDS011;6121;49.810;6.418;2022-11-15T03:19:04;932.00;;;873.22;;
12114;SDS011;6121;49.810;6.418;2022-11-15T03:21:37;965.92;;;905.60;;
12114;SDS011;6121;49.810;6.418;2022-11-15T03:24:05;975.90;;;915.33;;
12114;SDS011;6121;49.810;6.418;2022-11-15T03:26:33;981.40;;;920.55;;
12114;SDS011;6121;49.810;6.418;2022-11-15T03:29:04;915.55;;;857.00;;
12114;SDS011;6121;49.810;6.418;2022-11-15T03:31:37;920.37;;;862.03;;
12114;SDS011;6121;49.810;6.418;2022-11-15T03:34:20;926.53;;;868.27;;
12114;SDS011;6121;49.810;6.418;2022-11-15T03:36:47;960.80;;;900.80;;
12114;SDS011;6121;49.810;6.418;2022-11-15T03:39:15;974.17;;;913.65;;
12114;SDS011;6121;49.810;6.418;2022-11-15T03:41:48;966.22;;;906.13;;
12114;SDS011;6121;49.810;6.418;2022-11-15T03:44:36;981.60;;;920.30;;
12114;SDS011;6121;49.810;6.418;2022-11-15T03:49:49;987.38;;;926.08;;
12114;SDS011;6121;49.810;6.418;2022-11-15T03:52:18;984.95;;;924.17;;
12114;SDS011;6121;49.810;6.418;2022-11-15T03:55:03;987.33;;;926.30;;
12114;SDS011;6121;49.810;6.418;2022-11-15T03:57:33;955.63;;;896.08;;
12114;SDS011;6121;49.810;6.418;2022-11-15T03:59:58;950.03;;;890.57;;
12114;SDS011;6121;49.810;6.418;2022-11-15T04:02:24;947.35;;;887.90;;
12114;SDS011;6121;49.810;6.418;2022-11-15T04:04:50;946.63;;;887.30;;
12114;SDS011;6121;49.810;6.418;2022-11-15T04:07:15;949.57;;;890.37;;
12114;SDS011;6121;49.810;6.418;2022-11-15T04:09:41;964.17;;;903.93;;
12114;SDS011;6121;49.810;6.418;2022-11-15T04:12:25;947.83;;;888.30;;
12114;SDS011;6121;49.810;6.418;2022-11-15T04:15:00;945.55;;;886.08;;
12114;SDS011;6121;49.810;6.418;2022-11-15T04:17:37;940.70;;;881.70;;
12114;SDS011;6121;49.810;6.418;2022-11-15T04:20:06;938.65;;;879.67;;
12114;SDS011;6121;49.810;6.418;2022-11-15T04:22:56;946.00;;;886.45;;
12114;SDS011;6121;49.810;6.418;2022-11-15T04:25:42;936.65;;;877.67;;
12114;SDS011;6121;49.810;6.418;2022-11-15T04:28:09;936.47;;;877.43;;
12114;SDS011;6121;49.810;6.418;2022-11-15T04:30:35;941.88;;;882.53;;
12114;SDS011;6121;49.810;6.418;2022-11-15T04:33:00;947.72;;;888.38;;
12114;SDS011;6121;49.810;6.418;2022-11-15T04:35:26;939.40;;;880.33;;
12114;SDS011;6121;49.810;6.418;2022-11-15T04:37:52;942.13;;;882.87;;
12114;SDS011;6121;49.810;6.418;2022-11-15T04:40:19;937.38;;;878.35;;
12114;SDS011;6121;49.810;6.418;2022-11-15T04:42:44;937.88;;;878.90;;
12114;SDS011;6121;49.810;6.418;2022-11-15T04:45:10;937.57;;;878.50;;
12114;SDS011;6121;49.810;6.418;2022-11-15T04:47:36;943.90;;;884.70;;
12114;SDS011;6121;49.810;6.418;2022-11-15T04:50:02;937.03;;;878.15;;
12114;SDS011;6121;49.810;6.418;2022-11-15T04:52:28;932.33;;;873.73;;
12114;SDS011;6121;49.810;6.418;2022-11-15T04:54:53;936.30;;;877.33;;
12114;SDS011;6121;49.810;6.418;2022-11-15T04:57:19;938.10;;;878.83;;
12114;SDS011;6121;49.810;6.418;2022-11-15T04:59:45;933.63;;;874.13;;
12114;SDS011;6121;49.810;6.418;2022-11-15T05:02:10;914.38;;;856.40;;
12114;SDS011;6121;49.810;6.418;2022-11-15T05:04:36;921.53;;;862.97;;
12114;SDS011;6121;49.810;6.418;2022-11-15T05:07:02;919.85;;;861.17;;
12114;SDS011;6121;49.810;6.418;2022-11-15T05:09:29;916.60;;;858.03;;
12114;SDS011;6121;49.810;6.418;2022-11-15T05:11:57;929.13;;;870.38;;
12114;SDS011;6121;49.810;6.418;2022-11-15T05:14:23;913.20;;;854.90;;
12114;SDS011;6121;49.810;6.418;2022-11-15T05:16:49;928.77;;;869.87;;
12114;SDS011;6121;49.810;6.418;2022-11-15T05:19:14;919.83;;;861.33;;
12114;SDS011;6121;49.810;6.418;2022-11-15T05:21:40;923.65;;;864.75;;
12114;SDS011;6121;49.810;6.418;2022-11-15T05:24:06;906.13;;;847.70;;
12114;SDS011;6121;49.810;6.418;2022-11-15T05:26:34;901.53;;;843.35;;
12114;SDS011;6121;49.810;6.418;2022-11-15T05:29:00;898.55;;;840.60;;
12114;SDS011;6121;49.810;6.418;2022-11-15T05:31:25;905.28;;;847.40;;
12114;SDS011;6121;49.810;6.418;2022-11-15T05:33:52;894.63;;;837.25;;
12114;SDS011;6121;49.810;6.418;2022-11-15T05:36:33;908.65;;;849.88;;
12114;SDS011;6121;49.810;6.418;2022-11-15T05:39:02;902.67;;;844.65;;
12114;SDS011;6121;49.810;6.418;2022-11-15T05:44:30;894.60;;;837.17;;
12114;SDS011;6121;49.810;6.418;2022-11-15T05:46:56;936.75;;;877.38;;
12114;SDS011;6121;49.810;6.418;2022-11-15T05:49:23;937.03;;;878.03;;
12114;SDS011;6121;49.810;6.418;2022-11-15T05:51:52;921.75;;;863.47;;
12114;SDS011;6121;49.810;6.418;2022-11-15T05:54:18;932.30;;;873.60;;
12114;SDS011;6121;49.810;6.418;2022-11-15T05:56:46;926.03;;;867.03;;
12114;SDS011;6121;49.810;6.418;2022-11-15T05:59:12;927.42;;;868.70;;
12114;SDS011;6121;49.810;6.418;2022-11-15T06:01:38;933.03;;;873.42;;
12114;SDS011;6121;49.810;6.418;2022-11-15T06:04:04;935.22;;;875.80;;
12114;SDS011;6121;49.810;6.418;2022-11-15T06:06:30;926.75;;;867.28;;
12114;SDS011;6121;49.810;6.418;2022-11-15T06:08:55;931.05;;;871.88;;
12114;SDS011;6121;49.810;6.418;2022-11-15T06:11:21;931.30;;;871.88;;
12114;SDS011;6121;49.810;6.418;2022-11-15T06:13:46;931.40;;;872.10;;
12114;SDS011;6121;49.810;6.418;2022-11-15T06:16:12;938.93;;;879.47;;
12114;SDS011;6121;49.810;6.418;2022-11-15T06:18:38;931.90;;;872.57;;
12114;SDS011;6121;49.810;6.418;2022-11-15T06:21:03;932.90;;;873.27;;
12114;SDS011;6121;49.810;6.418;2022-11-15T06:23:33;931.08;;;871.08;;
12114;SDS011;6121;49.810;6.418;2022-11-15T06:26:00;928.70;;;869.22;;
12114;SDS011;6121;49.810;6.418;2022-11-15T06:28:32;927.55;;;867.70;;
12114;SDS011;6121;49.810;6.418;2022-11-15T06:31:05;926.92;;;868.10;;
12114;SDS011;6121;49.810;6.418;2022-11-15T06:33:32;942.50;;;883.10;;
12114;SDS011;6121;49.810;6.418;2022-11-15T06:36:04;935.85;;;876.55;;
12114;SDS011;6121;49.810;6.418;2022-11-15T06:38:32;941.85;;;882.35;;
12114;SDS011;6121;49.810;6.418;2022-11-15T06:41:01;946.50;;;886.20;;
12114;SDS011;6121;49.810;6.418;2022-11-15T06:43:31;941.45;;;881.67;;
12114;SDS011;6121;49.810;6.418;2022-11-15T06:45:58;943.88;;;883.72;;
12114;SDS011;6121;49.810;6.418;2022-11-15T06:48:25;946.53;;;886.85;;
12114;SDS011;6121;49.810;6.418;2022-11-15T06:50:51;940.10;;;880.33;;
12114;SDS011;6121;49.810;6.418;2022-11-15T06:53:21;948.03;;;887.38;;
12114;SDS011;6121;49.810;6.418;2022-11-15T06:55:46;949.22;;;889.20;;
12114;SDS011;6121;49.810;6.418;2022-11-15T06:58:12;944.78;;;885.17;;
12114;SDS011;6121;49.810;6.418;2022-11-15T07:00:38;942.40;;;882.57;;
12114;SDS011;6121;49.810;6.418;2022-11-15T07:03:04;938.85;;;879.65;;
12114;SDS011;6121;49.810;6.418;2022-11-15T07:05:30;943.20;;;883.17;;
12114;SDS011;6121;49.810;6.418;2022-11-15T07:07:56;941.78;;;881.35;;
12114;SDS011;6121;49.810;6.418;2022-11-15T07:10:23;945.38;;;885.25;;
12114;SDS011;6121;49.810;6.418;2022-11-15T07:12:53;940.03;;;880.47;;
12114;SDS011;6121;49.810;6.418;2022-11-15T07:15:20;941.03;;;880.47;;
12114;SDS011;6121;49.810;6.418;2022-11-15T07:17:47;946.15;;;886.15;;
12114;SDS011;6121;49.810;6.418;2022-11-15T07:20:13;935.20;;;876.17;;
12114;SDS011;6121;49.810;6.418;2022-11-15T07:22:39;940.28;;;880.65;;
12114;SDS011;6121;49.810;6.418;2022-11-15T07:25:05;946.78;;;886.05;;
12114;SDS011;6121;49.810;6.418;2022-11-15T07:27:31;933.45;;;874.10;;
12114;SDS011;6121;49.810;6.418;2022-11-15T07:29:57;939.57;;;879.97;;
12114;SDS011;6121;49.810;6.418;2022-11-15T07:32:23;934.50;;;874.83;;
12114;SDS011;6121;49.810;6.418;2022-11-15T07:34:48;940.27;;;880.57;;
12114;SDS011;6121;49.810;6.418;2022-11-15T07:37:14;925.07;;;866.60;;
12114;SDS011;6121;49.810;6.418;2022-11-15T07:39:41;937.25;;;878.15;;
12114;SDS011;6121;49.810;6.418;2022-11-15T07:42:07;942.60;;;882.80;;
12114;SDS011;6121;49.810;6.418;2022-11-15T07:44:51;922.17;;;862.70;;
12114;SDS011;6121;49.810;6.418;2022-11-15T07:47:17;920.17;;;861.17;;
12114;SDS011;6121;49.810;6.418;2022-11-15T07:49:42;912.53;;;853.58;;
12114;SDS011;6121;49.810;6.418;2022-11-15T07:52:08;917.53;;;858.72;;
12114;SDS011;6121;49.810;6.418;2022-11-15T07:54:34;918.50;;;859.67;;
12114;SDS011;6121;49.810;6.418;2022-11-15T07:56:59;920.42;;;861.42;;
12114;SDS011;6121;49.810;6.418;2022-11-15T07:59:25;918.65;;;860.08;;
12114;SDS011;6121;49.810;6.418;2022-11-15T08:01:50;907.13;;;848.13;;
12114;SDS011;6121;49.810;6.418;2022-11-15T08:04:16;926.97;;;867.90;;
12114;SDS011;6121;49.810;6.418;2022-11-15T08:06:43;940.20;;;879.42;;
12114;SDS011;6121;49.810;6.418;2022-11-15T08:09:09;935.67;;;876.00;;
12114;SDS011;6121;49.810;6.418;2022-11-15T08:11:34;932.87;;;873.87;;
12114;SDS011;6121;49.810;6.418;2022-11-15T08:14:00;930.63;;;871.53;;
12114;SDS011;6121;49.810;6.418;2022-11-15T08:16:26;923.73;;;864.73;;
12114;SDS011;6121;49.810;6.418;2022-11-15T08:18:51;921.00;;;862.27;;
12114;SDS011;6121;49.810;6.418;2022-11-15T08:21:18;932.13;;;872.70;;
12114;SDS011;6121;49.810;6.418;2022-11-15T08:23:44;926.28;;;867.15;;
12114;SDS011;6121;49.810;6.418;2022-11-15T08:26:10;928.23;;;868.73;;
12114;SDS011;6121;49.810;6.418;2022-11-15T08:28:35;931.40;;;870.53;;
12114;SDS011;6121;49.810;6.418;2022-11-15T08:31:01;933.67;;;871.87;;
12114;SDS011;6121;49.810;6.418;2022-11-15T08:33:28;929.20;;;867.72;;
12114;SDS011;6121;49.810;6.418;2022-11-15T08:35:56;915.53;;;854.97;;
12114;SDS011;6121;49.810;6.418;2022-11-15T08:38:22;918.30;;;857.87;;
12114;SDS011;6121;49.810;6.418;2022-11-15T08:40:48;917.28;;;856.95;;
12114;SDS011;6121;49.810;6.418;2022-11-15T08:43:16;913.33;;;852.85;;
12114;SDS011;6121;49.810;6.418;2022-11-15T08:45:42;913.70;;;851.55;;
12114;SDS011;6121;49.810;6.418;2022-11-15T08:48:08;902.20;;;842.10;;
12114;SDS011;6121;49.810;6.418;2022-11-15T08:50:33;912.40;;;852.35;;
12114;SDS011;6121;49.810;6.418;2022-11-15T08:53:06;910.40;;;849.90;;
12114;SDS011;6121;49.810;6.418;2022-11-15T08:55:35;913.65;;;853.58;;
12114;SDS011;6121;49.810;6.418;2022-11-15T08:58:02;902.45;;;841.90;;
12114;SDS011;6121;49.810;6.418;2022-11-15T09:00:28;894.55;;;835.05;;
12114;SDS011;6121;49.810;6.418;2022-11-15T09:02:53;900.17;;;840.27;;
12114;SDS011;6121;49.810;6.418;2022-11-15T09:05:19;918.80;;;856.70;;
12114;SDS011;6121;49.810;6.418;2022-11-15T09:07:45;909.42;;;848.47;;
12114;SDS011;6121;49.810;6.418;2022-11-15T09:10:10;903.47;;;843.10;;
12114;SDS011;6121;49.810;6.418;2022-11-15T09:12:36;903.70;;;843.95;;
12114;SDS011;6121;49.810;6.418;2022-11-15T09:15:02;893.33;;;832.85;;
12114;SDS011;6121;49.810;6.418;2022-11-15T09:17:28;911.83;;;851.92;;
12114;SDS011;6121;49.810;6.418;2022-11-15T09:19:53;962.63;;;899.70;;
12114;SDS011;6121;49.810;6.418;2022-11-15T09:22:19;946.97;;;885.23;;
12114;SDS011;6121;49.810;6.418;2022-11-15T09:24:44;952.97;;;890.80;;
12114;SDS011;6121;49.810;6.418;2022-11-15T09:27:10;959.30;;;897.57;;
12114;SDS011;6121;49.810;6.418;2022-11-15T09:29:36;956.45;;;893.72;;
12114;SDS011;6121;49.810;6.418;2022-11-15T09:32:02;947.22;;;884.90;;
12114;SDS011;6121;49.810;6.418;2022-11-15T09:34:27;956.88;;;894.95;;
12114;SDS011;6121;49.810;6.418;2022-11-15T09:36:53;937.67;;;876.42;;
12114;SDS011;6121;49.810;6.418;2022-11-15T09:39:19;960.33;;;897.22;;
12114;SDS011;6121;49.810;6.418;2022-11-15T09:47:33;961.87;;;899.63;;
12114;SDS011;6121;49.810;6.418;2022-11-15T09:50:08;955.70;;;893.67;;
12114;SDS011;6121;49.810;6.418;2022-11-15T09:52:37;936.90;;;876.30;;
12114;SDS011;6121;49.810;6.418;2022-11-15T09:55:07;960.27;;;897.07;;
12114;SDS011;6121;49.810;6.418;2022-11-15T09:57:38;941.15;;;880.88;;
12114;SDS011;6121;49.810;6.418;2022-11-15T10:00:24;950.13;;;888.28;;
12114;SDS011;6121;49.810;6.418;2022-11-15T10:03:16;940.58;;;879.75;;
12114;SDS011;6121;49.810;6.418;2022-11-15T10:05:49;917.10;;;855.80;;
12114;SDS011;6121;49.810;6.418;2022-11-15T10:11:06;910.60;;;850.60;;
12114;SDS011;6121;49.810;6.418;2022-11-15T10:13:35;938.22;;;877.15;;
12114;SDS011;6121;49.810;6.418;2022-11-15T10:18:52;924.75;;;863.20;;
12114;SDS011;6121;49.810;6.418;2022-11-15T10:21:29;912.67;;;852.53;;
12114;SDS011;6121;49.810;6.418;2022-11-15T10:24:12;882.47;;;823.28;;
12114;SDS011;6121;49.810;6.418;2022-11-15T10:26:45;841.60;;;783.13;;
12114;SDS011;6121;49.810;6.418;2022-11-15T10:29:17;862.05;;;801.47;;
12114;SDS011;6121;49.810;6.418;2022-11-15T10:31:46;845.97;;;788.67;;
12114;SDS011;6121;49.810;6.418;2022-11-15T10:34:20;838.85;;;781.40;;
12114;SDS011;6121;49.810;6.418;2022-11-15T10:36:54;858.67;;;799.47;;
12114;SDS011;6121;49.810;6.418;2022-11-15T10:39:23;725.40;;;669.33;;
12114;SDS011;6121;49.810;6.418;2022-11-15T10:41:50;749.45;;;694.17;;
12114;SDS011;6121;49.810;6.418;2022-11-15T10:46:41;524.00;;;474.30;;
12114;SDS011;6121;49.810;6.418;2022-11-15T10:51:45;521.80;;;472.25;;
12114;SDS011;6121;49.810;6.418;2022-11-15T10:54:14;522.92;;;474.00;;
12114;SDS011;6121;49.810;6.418;2022-11-15T10:56:52;524.17;;;475.33;;
12114;SDS011;6121;49.810;6.418;2022-11-15T10:59:27;589.78;;;537.42;;
12114;SDS011;6121;49.810;6.418;2022-11-15T11:01:55;552.53;;;502.80;;
12114;SDS011;6121;49.810;6.418;2022-11-15T11:04:21;561.47;;;512.25;;
12114;SDS011;6121;49.810;6.418;2022-11-15T11:06:51;576.70;;;525.78;;
12114;SDS011;6121;49.810;6.418;2022-11-15T11:09:31;601.25;;;548.58;;
12114;SDS011;6121;49.810;6.418;2022-11-15T11:12:02;593.83;;;543.27;;
12114;SDS011;6121;49.810;6.418;2022-11-15T11:14:30;550.27;;;500.83;;
12114;SDS011;6121;49.810;6.418;2022-11-15T11:25:03;534.15;;;484.60;;
12114;SDS011;6121;49.810;6.418;2022-11-15T11:27:59;508.15;;;460.02;;
12114;SDS011;6121;49.810;6.418;2022-11-15T11:33:04;503.02;;;454.23;;
12114;SDS011;6121;49.810;6.418;2022-11-15T11:44:11;657.05;;;603.95;;
12114;SDS011;6121;49.810;6.418;2022-11-15T11:46:59;675.17;;;621.40;;
12114;SDS011;6121;49.810;6.418;2022-11-15T11:49:30;723.38;;;666.95;;
12114;SDS011;6121;49.810;6.418;2022-11-15T11:57:41;742.83;;;687.85;;
12114;SDS011;6121;49.810;6.418;2022-11-15T12:00:20;753.45;;;697.78;;
12114;SDS011;6121;49.810;6.418;2022-11-15T12:02:56;745.38;;;690.75;;
12114;SDS011;6121;49.810;6.418;2022-11-15T12:05:39;766.63;;;710.95;;
12114;SDS011;6121;49.810;6.418;2022-11-15T12:11:13;760.58;;;704.45;;
12114;SDS011;6121;49.810;6.418;2022-11-15T12:13:46;758.17;;;702.63;;
12114;SDS011;6121;49.810;6.418;2022-11-15T12:18:46;762.80;;;705.45;;
12114;SDS011;6121;49.810;6.418;2022-11-15T12:23:47;774.38;;;718.42;;
12114;SDS011;6121;49.810;6.418;2022-11-15T12:26:18;781.93;;;725.33;;
12114;SDS011;6121;49.810;6.418;2022-11-15T12:28:56;784.90;;;727.13;;
12114;SDS011;6121;49.810;6.418;2022-11-15T12:34:04;756.83;;;702.75;;
12114;SDS011;6121;49.810;6.418;2022-11-15T12:36:42;769.13;;;714.03;;
12114;SDS011;6121;49.810;6.418;2022-11-15T12:39:09;777.10;;;719.55;;
12114;SDS011;6121;49.810;6.418;2022-11-15T12:41:37;774.53;;;719.17;;
12114;SDS011;6121;49.810;6.418;2022-11-15T13:07:57;771.22;;;714.83;;
12114;SDS011;6121;49.810;6.418;2022-11-15T13:10:30;772.45;;;717.03;;
12114;SDS011;6121;49.810;6.418;2022-11-15T13:12:58;766.63;;;710.80;;
12114;SDS011;6121;49.810;6.418;2022-11-15T13:18:39;762.95;;;707.38;;
12114;SDS011;6121;49.810;6.418;2022-11-15T13:21:19;758.47;;;703.00;;
12114;SDS011;6121;49.810;6.418;2022-11-15T13:24:10;764.33;;;708.97;;
12114;SDS011;6121;49.810;6.418;2022-11-15T13:26:40;769.92;;;714.70;;
12114;SDS011;6121;49.810;6.418;2022-11-15T13:29:14;788.83;;;729.05;;
12114;SDS011;6121;49.810;6.418;2022-11-15T13:31:42;757.92;;;702.70;;
12114;SDS011;6121;49.810;6.418;2022-11-15T13:34:25;751.58;;;694.13;;
12114;SDS011;6121;49.810;6.418;2022-11-15T13:36:58;788.83;;;730.63;;
12114;SDS011;6121;49.810;6.418;2022-11-15T13:39:28;806.65;;;746.38;;
12114;SDS011;6121;49.810;6.418;2022-11-15T13:41:56;780.35;;;723.03;;
12114;SDS011;6121;49.810;6.418;2022-11-15T13:44:27;773.38;;;717.33;;
12114;SDS011;6121;49.810;6.418;2022-11-15T13:47:02;770.00;;;714.38;;
12114;SDS011;6121;49.810;6.418;2022-11-15T13:49:31;800.30;;;741.53;;
12114;SDS011;6121;49.810;6.418;2022-11-15T13:51:58;771.30;;;716.03;;
12114;SDS011;6121;49.810;6.418;2022-11-15T13:57:01;780.70;;;724.40;;
12114;SDS011;6121;49.810;6.418;2022-11-15T13:59:47;787.63;;;729.35;;
12114;SDS011;6121;49.810;6.418;2022-11-15T14:02:14;765.65;;;709.97;;
12114;SDS011;6121;49.810;6.418;2022-11-15T14:05:02;757.80;;;701.85;;
12114;SDS011;6121;49.810;6.418;2022-11-15T14:07:59;762.25;;;706.90;;
12114;SDS011;6121;49.810;6.418;2022-11-15T14:10:45;771.50;;;715.50;;
12114;SDS011;6121;49.810;6.418;2022-11-15T14:13:28;778.23;;;721.70;;
12114;SDS011;6121;49.810;6.418;2022-11-15T14:16:11;777.15;;;720.83;;
12114;SDS011;6121;49.810;6.418;2022-11-15T14:21:10;773.80;;;718.17;;
12114;SDS011;6121;49.810;6.418;2022-11-15T14:23:36;777.15;;;721.67;;
12114;SDS011;6121;49.810;6.418;2022-11-15T14:26:01;761.50;;;705.13;;
12114;SDS011;6121;49.810;6.418;2022-11-15T14:28:28;766.53;;;709.70;;
12114;SDS011;6121;49.810;6.418;2022-11-15T14:30:58;783.65;;;727.00;;
12114;SDS011;6121;49.810;6.418;2022-11-15T14:33:29;781.72;;;724.83;;
12114;SDS011;6121;49.810;6.418;2022-11-15T14:36:05;773.90;;;717.55;;
12114;SDS011;6121;49.810;6.418;2022-11-15T14:38:36;788.05;;;731.10;;
12114;SDS011;6121;49.810;6.418;2022-11-15T14:41:02;764.65;;;708.10;;
12114;SDS011;6121;49.810;6.418;2022-11-15T14:43:28;783.15;;;726.88;;
12114;SDS011;6121;49.810;6.418;2022-11-15T14:45:53;790.60;;;732.15;;
12114;SDS011;6121;49.810;6.418;2022-11-15T14:48:19;799.08;;;742.03;;
12114;SDS011;6121;49.810;6.418;2022-11-15T14:50:45;843.85;;;786.15;;
12114;SDS011;6121;49.810;6.418;2022-11-15T14:53:15;819.97;;;762.83;;
12114;SDS011;6121;49.810;6.418;2022-11-15T14:55:42;842.15;;;781.80;;
12114;SDS011;6121;49.810;6.418;2022-11-15T14:58:07;835.85;;;777.95;;
12114;SDS011;6121;49.810;6.418;2022-11-15T15:00:37;859.67;;;800.90;;
12114;SDS011;6121;49.810;6.418;2022-11-15T15:03:04;839.50;;;780.22;;
12114;SDS011;6121;49.810;6.418;2022-11-15T15:05:38;857.40;;;797.78;;
12114;SDS011;6121;49.810;6.418;2022-11-15T15:08:05;871.28;;;811.75;;
12114;SDS011;6121;49.810;6.418;2022-11-15T15:10:33;875.93;;;816.17;;
12114;SDS011;6121;49.810;6.418;2022-11-15T15:13:03;885.25;;;824.60;;
12114;SDS011;6121;49.810;6.418;2022-11-15T15:15:33;872.17;;;811.15;;
12114;SDS011;6121;49.810;6.418;2022-11-15T15:18:01;872.13;;;812.20;;
12114;SDS011;6121;49.810;6.418;2022-11-15T15:20:27;862.58;;;803.10;;
12114;SDS011;6121;49.810;6.418;2022-11-15T15:22:54;853.30;;;794.73;;
12114;SDS011;6121;49.810;6.418;2022-11-15T15:27:48;854.83;;;795.83;;
12114;SDS011;6121;49.810;6.418;2022-11-15T15:30:14;855.45;;;796.83;;
12114;SDS011;6121;49.810;6.418;2022-11-15T15:32:40;864.97;;;805.28;;
12114;SDS011;6121;49.810;6.418;2022-11-15T15:35:05;861.25;;;802.17;;
12114;SDS011;6121;49.810;6.418;2022-11-15T15:37:35;862.60;;;803.55;;
12114;SDS011;6121;49.810;6.418;2022-11-15T15:40:01;883.88;;;822.78;;
12114;SDS011;6121;49.810;6.418;2022-11-15T15:42:27;887.30;;;827.25;;
12114;SDS011;6121;49.810;6.418;2022-11-15T15:44:52;899.90;;;839.72;;
12114;SDS011;6121;49.810;6.418;2022-11-15T15:47:19;877.80;;;817.87;;
12114;SDS011;6121;49.810;6.418;2022-11-15T15:49:46;886.33;;;824.92;;
12114;SDS011;6121;49.810;6.418;2022-11-15T15:52:12;879.58;;;819.70;;
12114;SDS011;6121;49.810;6.418;2022-11-15T15:54:38;889.40;;;829.40;;
12114;SDS011;6121;49.810;6.418;2022-11-15T15:57:05;886.95;;;826.53;;
12114;SDS011;6121;49.810;6.418;2022-11-15T15:59:31;925.58;;;861.67;;
12114;SDS011;6121;49.810;6.418;2022-11-15T16:01:56;909.97;;;848.35;;
12114;SDS011;6121;49.810;6.418;2022-11-15T16:04:22;905.73;;;844.03;;
12114;SDS011;6121;49.810;6.418;2022-11-15T16:06:48;927.83;;;864.93;;
12114;SDS011;6121;49.810;6.418;2022-11-15T16:09:16;921.83;;;860.13;;
12114;SDS011;6121;49.810;6.418;2022-11-15T16:11:44;915.95;;;854.70;;
12114;SDS011;6121;49.810;6.418;2022-11-15T16:14:10;905.77;;;844.93;;
12114;SDS011;6121;49.810;6.418;2022-11-15T16:16:36;903.13;;;842.72;;
12114;SDS011;6121;49.810;6.418;2022-11-15T16:19:03;928.22;;;865.33;;
12114;SDS011;6121;49.810;6.418;2022-11-15T16:21:29;918.47;;;858.10;;
12114;SDS011;6121;49.810;6.418;2022-11-15T16:23:54;911.55;;;851.55;;
12114;SDS011;6121;49.810;6.418;2022-11-15T16:26:21;902.72;;;842.05;;